Time;durP1;ratioP1;P1;durP2;ratioP2;P2;SDS_P1;SDS_P2;PMS_P1;PMS_P2;Temp;Humidity;BMP_temperature;BMP_pressure;BME280_temperature;BME280_humidity;BME280_pressure;Samples;Min_cycle;Max_cycle;Signal;HPM_P1;HPM_P2
2022/05/14 00:02:07;;;;;;;6.15;2.50;;;13.10;99.90;;;;;;5091954;28;20040;-69
2022/05/14 00:04:32;;;;;;;5.35;2.20;;;13.10;99.90;;;;;;5085701;28;20050;-68
2022/05/14 00:06:58;;;;;;;4.03;2.30;;;13.10;99.90;;;;;;5088630;28;20096;-68
2022/05/14 00:09:32;;;;;;;7.25;2.05;;;13.10;99.90;;;;;;5082411;28;20035;-69
2022/05/14 00:14:48;;;;;;;8.35;2.70;;;13.10;99.90;;;;;;5091839;28;20626;-69
2022/05/14 00:17:14;;;;;;;6.03;2.80;;;13.10;99.90;;;;;;5071981;28;20488;-70
2022/05/14 00:19:51;;;;;;;9.02;2.42;;;13.00;99.90;;;;;;5072037;28;20023;-70
2022/05/14 00:22:20;;;;;;;4.63;2.35;;;13.00;99.90;;;;;;5086539;28;20032;-70
2022/05/14 00:24:49;;;;;;;7.40;2.15;;;13.00;99.90;;;;;;5091666;28;20484;-70
2022/05/14 00:27:15;;;;;;;4.40;2.00;;;13.00;99.90;;;;;;5079026;28;20020;-70
2022/05/14 00:29:43;;;;;;;6.55;2.30;;;13.00;99.90;;;;;;5091624;28;20088;-70
2022/05/14 00:32:21;;;;;;;4.47;2.13;;;13.00;99.90;;;;;;5092454;28;20012;-69
2022/05/14 00:34:46;;;;;;;5.85;2.05;;;13.00;99.90;;;;;;5090906;28;20028;-69
2022/05/14 00:37:12;;;;;;;10.52;2.78;;;12.90;99.90;;;;;;5094800;28;20473;-69
2022/05/14 00:39:44;;;;;;;6.63;2.72;;;12.90;99.90;;;;;;5094666;28;20534;-68
2022/05/14 00:42:15;;;;;;;5.43;2.10;;;12.90;99.90;;;;;;5095163;28;20020;-69
2022/05/14 00:44:47;;;;;;;4.72;2.25;;;12.90;99.90;;;;;;5094685;28;20057;-70
2022/05/14 00:47:16;;;;;;;6.50;2.30;;;12.90;99.90;;;;;;5090764;28;20110;-70
2022/05/14 00:49:42;;;;;;;4.43;2.13;;;12.80;99.90;;;;;;5089864;28;20082;-69
2022/05/14 00:52:13;;;;;;;8.07;2.20;;;12.90;99.90;;;;;;5096928;28;20503;-70
2022/05/14 00:54:43;;;;;;;4.25;2.50;;;12.80;99.90;;;;;;5091273;28;20389;-69
2022/05/14 00:57:13;;;;;;;6.60;2.30;;;12.80;99.90;;;;;;5094333;28;20388;-69
2022/05/14 00:59:39;;;;;;;3.85;2.42;;;12.80;99.90;;;;;;5068622;28;20024;-69
2022/05/14 01:02:06;;;;;;;7.05;2.35;;;12.70;99.90;;;;;;5094375;28;20055;-69
2022/05/14 01:04:33;;;;;;;7.40;2.30;;;12.70;99.90;;;;;;5069710;28;20497;-69
2022/05/14 01:07:11;;;;;;;6.55;2.53;;;12.60;99.90;;;;;;5092328;28;20547;-70
2022/05/14 01:09:45;;;;;;;5.32;2.58;;;12.60;99.90;;;;;;5093348;28;20089;-69
2022/05/14 01:12:13;;;;;;;5.38;1.90;;;12.50;99.90;;;;;;5082237;28;20052;-69
2022/05/14 01:14:43;;;;;;;3.70;2.15;;;12.50;99.90;;;;;;5094055;28;20465;-69
2022/05/14 01:17:09;;;;;;;5.68;2.40;;;12.50;99.90;;;;;;5094309;28;20111;-70
2022/05/14 01:19:35;;;;;;;5.35;2.28;;;12.40;99.90;;;;;;5070813;28;20028;-69
2022/05/14 01:22:38;;;;;;;12.43;2.70;;;12.40;99.90;;;;;;5087190;28;20024;-70
2022/05/14 01:28:20;;;;;;;6.78;1.90;;;12.30;99.90;;;;;;5094297;28;20031;-70
2022/05/14 01:30:59;;;;;;;6.80;2.28;;;12.30;99.90;;;;;;5094200;28;20043;-71
2022/05/14 01:33:29;;;;;;;4.70;1.98;;;12.30;99.90;;;;;;5087414;28;20054;-69
2022/05/14 01:35:58;;;;;;;4.28;2.15;;;12.30;99.90;;;;;;5083577;28;20016;-70
2022/05/14 01:38:26;;;;;;;5.53;2.40;;;12.30;99.90;;;;;;5093831;28;20020;-70
2022/05/14 01:40:52;;;;;;;5.28;2.50;;;12.20;99.90;;;;;;5075121;28;20024;-69
2022/05/14 01:43:21;;;;;;;4.82;1.95;;;12.20;99.90;;;;;;5083795;28;20077;-69
2022/05/14 01:45:47;;;;;;;9.05;2.20;;;12.20;99.90;;;;;;5070461;28;20477;-69
2022/05/14 01:48:15;;;;;;;6.00;2.33;;;12.20;99.90;;;;;;5093123;28;20028;-69
2022/05/14 01:50:41;;;;;;;3.65;2.22;;;12.20;99.90;;;;;;5072949;28;20047;-69
2022/05/14 01:53:10;;;;;;;5.85;2.40;;;12.20;99.90;;;;;;5090964;28;20016;-69
2022/05/14 01:55:41;;;;;;;4.47;2.10;;;12.10;99.90;;;;;;5093214;28;20024;-69
2022/05/14 02:00:51;;;;;;;;;;;12.00;99.90;;;;;;5088553;28;20088;-69
2022/05/14 02:03:18;;;;;;;3.67;1.98;;;12.10;99.90;;;;;;5088851;28;20014;-69
2022/05/14 02:05:52;;;;;;;6.60;2.42;;;12.10;99.90;;;;;;5085604;28;20027;-69
2022/05/14 02:08:24;;;;;;;5.72;2.45;;;12.00;99.90;;;;;;5072230;28;20032;-69
2022/05/14 02:10:49;;;;;;;7.70;2.90;;;12.00;99.90;;;;;;5083833;28;20036;-70
2022/05/14 02:13:15;;;;;;;4.97;2.00;;;12.00;99.90;;;;;;5088466;28;20024;-70
2022/05/14 02:15:40;;;;;;;4.18;2.20;;;12.00;99.90;;;;;;5074428;28;20135;-70
2022/05/14 02:18:06;;;;;;;5.72;2.00;;;11.90;99.90;;;;;;5093249;28;20032;-70
2022/05/14 02:20:35;;;;;;;3.38;2.50;;;11.90;99.90;;;;;;5093451;28;20026;-69
2022/05/14 02:23:03;;;;;;;5.10;2.28;;;11.90;99.90;;;;;;5083809;28;20477;-70
2022/05/14 02:25:32;;;;;;;5.70;2.58;;;11.90;99.90;;;;;;5088908;28;20405;-69
2022/05/14 02:27:58;;;;;;;5.05;2.30;;;11.90;99.90;;;;;;5089196;28;20067;-69
2022/05/14 02:30:26;;;;;;;4.25;2.15;;;11.90;99.90;;;;;;5090152;28;20494;-70
2022/05/14 02:33:01;;;;;;;6.07;2.60;;;11.80;99.90;;;;;;5092754;28;20081;-70
2022/05/14 02:35:26;;;;;;;8.07;2.40;;;11.80;99.90;;;;;;5078485;28;20446;-69
2022/05/14 02:37:52;;;;;;;4.47;1.98;;;11.80;99.90;;;;;;5091338;28;20056;-69
2022/05/14 02:40:24;;;;;;;5.93;1.83;;;11.80;99.90;;;;;;5074483;28;20476;-70
2022/05/14 02:42:49;;;;;;;4.30;1.98;;;11.80;99.90;;;;;;5092436;28;20051;-70
2022/05/14 02:45:19;;;;;;;6.07;2.47;;;11.80;99.90;;;;;;5093401;28;20082;-70
2022/05/14 02:47:47;;;;;;;5.38;2.45;;;11.80;99.90;;;;;;5092635;28;20024;-69
2022/05/14 02:50:13;;;;;;;3.53;2.35;;;11.80;99.90;;;;;;5086153;28;20535;-69
2022/05/14 02:52:38;;;;;;;4.22;2.20;;;11.70;99.90;;;;;;5074225;28;20089;-70
2022/05/14 02:55:06;;;;;;;7.50;2.10;;;11.70;99.90;;;;;;5088921;28;20138;-69
2022/05/14 02:57:32;;;;;;;5.75;2.42;;;11.70;99.90;;;;;;5091690;28;20028;-70
2022/05/14 03:00:12;;;;;;;3.28;2.22;;;11.60;99.90;;;;;;5075494;28;20024;-70
2022/05/14 03:02:37;;;;;;;3.17;1.90;;;11.60;99.90;;;;;;5073747;28;20066;-69
2022/05/14 03:05:04;;;;;;;3.70;1.83;;;11.60;99.90;;;;;;5092225;28;20024;-69
2022/05/14 03:07:30;;;;;;;6.13;2.20;;;11.50;99.90;;;;;;5091709;28;20095;-68
2022/05/14 03:09:55;;;;;;;5.60;1.95;;;11.50;99.90;;;;;;5072344;28;20051;-69
2022/05/14 03:12:24;;;;;;;6.43;2.30;;;11.50;99.90;;;;;;5089813;28;20690;-69
2022/05/14 03:14:51;;;;;;;7.47;2.80;;;11.50;99.90;;;;;;5085243;28;20036;-69
2022/05/14 03:17:18;;;;;;;6.10;2.25;;;11.40;99.90;;;;;;5072138;28;20032;-69
2022/05/14 03:19:44;;;;;;;5.55;1.88;;;11.40;99.90;;;;;;5067728;28;20146;-69
2022/05/14 03:22:15;;;;;;;4.20;2.30;;;11.40;99.90;;;;;;5091398;28;20646;-69
2022/05/14 03:24:44;;;;;;;5.53;2.38;;;11.30;99.90;;;;;;5070020;28;20135;-68
2022/05/14 03:27:12;;;;;;;4.15;1.90;;;11.30;99.90;;;;;;5072662;28;20427;-70
2022/05/14 03:29:39;;;;;;;6.00;2.10;;;11.30;99.90;;;;;;5073418;28;20101;-68
2022/05/14 03:32:08;;;;;;;4.80;2.35;;;11.30;99.90;;;;;;5089183;28;20048;-69
2022/05/14 03:34:36;;;;;;;5.95;2.80;;;11.20;99.90;;;;;;5088115;28;20047;-69
2022/05/14 03:37:03;;;;;;;5.88;3.20;;;11.20;99.90;;;;;;5088135;28;20025;-69
2022/05/14 03:39:29;;;;;;;7.22;3.10;;;11.10;99.90;;;;;;5089944;28;20024;-68
2022/05/14 03:41:58;;;;;;;3.42;2.60;;;11.00;99.90;;;;;;5068448;28;20028;-68
2022/05/14 03:44:29;;;;;;;6.13;2.78;;;11.00;99.90;;;;;;5073709;28;20035;-68
2022/05/14 03:46:55;;;;;;;7.22;2.72;;;10.90;99.90;;;;;;5071002;28;20028;-68
2022/05/14 03:49:20;;;;;;;5.55;2.40;;;10.90;99.90;;;;;;5092038;28;20035;-69
2022/05/14 03:51:49;;;;;;;5.95;2.00;;;10.90;99.90;;;;;;5087002;28;20031;-69
2022/05/14 03:54:15;;;;;;;5.13;2.53;;;10.90;99.90;;;;;;5067501;28;20048;-69
2022/05/14 03:56:41;;;;;;;4.88;2.70;;;10.90;99.90;;;;;;5085034;28;20051;-69
2022/05/14 03:59:13;;;;;;;4.63;2.17;;;10.90;99.90;;;;;;5070477;28;20480;-69
2022/05/14 04:01:38;;;;;;;6.72;2.30;;;10.90;99.90;;;;;;5087177;28;20370;-71
2022/05/14 04:04:10;;;;;;;5.22;2.28;;;10.90;99.90;;;;;;5066452;28;20043;-70
2022/05/14 04:06:41;;;;;;;6.13;2.30;;;10.90;99.90;;;;;;5084461;28;20020;-71
2022/05/14 04:09:13;;;;;;;6.45;2.67;;;11.00;99.90;;;;;;5086395;28;20104;-72
2022/05/14 04:11:44;;;;;;;4.22;1.95;;;11.00;99.90;;;;;;5084016;28;20101;-72
2022/05/14 04:14:19;;;;;;;4.40;2.00;;;11.00;99.90;;;;;;5084494;28;23608;-72
2022/05/14 04:16:53;;;;;;;4.05;2.42;;;11.00;99.90;;;;;;5089455;28;20028;-73
2022/05/14 04:19:22;;;;;;;3.85;1.80;;;11.00;99.90;;;;;;5069949;28;20093;-72
2022/05/14 04:21:48;;;;;;;4.65;1.70;;;11.00;99.90;;;;;;5089969;28;20209;-72
2022/05/14 04:24:14;;;;;;;4.68;2.05;;;11.00;99.90;;;;;;5088559;28;20496;-72
2022/05/14 04:26:40;;;;;;;5.13;1.75;;;11.00;99.90;;;;;;5088018;28;20103;-72
2022/05/14 04:29:06;;;;;;;4.85;1.80;;;11.00;99.90;;;;;;5097163;28;20035;-72
2022/05/14 04:31:32;;;;;;;4.75;1.90;;;11.10;99.90;;;;;;5070376;28;20101;-72
2022/05/14 04:33:57;;;;;;;3.13;2.00;;;11.10;99.90;;;;;;5085913;28;20050;-71
2022/05/14 04:36:23;;;;;;;5.60;2.25;;;11.20;99.90;;;;;;5087778;28;20020;-71
2022/05/14 04:38:50;;;;;;;6.38;1.75;;;11.20;99.90;;;;;;5067527;28;20522;-71
2022/05/14 04:41:30;;;;;;;4.65;1.50;;;11.30;99.90;;;;;;5081650;28;20032;-71
2022/05/14 04:43:57;;;;;;;5.43;1.50;;;11.40;99.90;;;;;;5084443;28;20023;-72
2022/05/14 04:46:25;;;;;;;4.50;2.13;;;11.50;99.90;;;;;;5094221;28;20443;-72
2022/05/14 04:49:00;;;;;;;6.57;1.85;;;11.60;99.90;;;;;;5081409;28;20917;-72
2022/05/14 04:51:35;;;;;;;3.15;1.52;;;11.80;99.90;;;;;;5080260;28;20032;-72
2022/05/14 04:54:00;;;;;;;7.55;1.98;;;12.10;99.90;;;;;;5065463;28;20032;-72
2022/05/14 04:56:26;;;;;;;4.97;2.10;;;12.40;99.90;;;;;;5081586;28;20119;-72
2022/05/14 04:58:51;;;;;;;2.67;1.75;;;12.80;99.90;;;;;;5083437;28;20026;-72
2022/05/14 05:01:17;;;;;;;3.42;1.55;;;13.10;99.90;;;;;;5084092;28;20107;-73
2022/05/14 05:03:46;;;;;;;5.80;2.00;;;13.40;99.90;;;;;;5086038;28;20028;-72
2022/05/14 05:06:14;;;;;;;5.78;2.13;;;13.70;99.90;;;;;;5083444;28;20028;-72
2022/05/14 05:08:54;;;;;;;3.53;1.77;;;13.80;99.90;;;;;;5088530;28;20020;-72
2022/05/14 05:11:21;;;;;;;6.82;2.42;;;13.90;99.90;;;;;;5078226;28;20129;-72
2022/05/14 05:13:50;;;;;;;7.78;2.53;;;14.00;99.90;;;;;;5082263;28;20052;-71
2022/05/14 05:16:16;;;;;;;3.45;2.10;;;14.10;99.90;;;;;;5084396;28;20119;-71
2022/05/14 05:18:44;;;;;;;2.97;1.70;;;14.20;99.90;;;;;;5073037;28;20217;-71
2022/05/14 05:21:13;;;;;;;6.13;1.80;;;14.30;99.90;;;;;;5088622;28;20047;-72
2022/05/14 05:23:39;;;;;;;3.70;1.73;;;14.30;99.90;;;;;;5086805;28;20047;-72
2022/05/14 05:26:05;;;;;;;3.97;1.67;;;14.50;99.90;;;;;;5082760;28;20024;-72
2022/05/14 05:28:30;;;;;;;3.42;1.73;;;14.60;99.90;;;;;;5086096;28;20020;-72
2022/05/14 05:30:59;;;;;;;2.78;1.33;;;14.60;99.90;;;;;;5063767;28;20031;-71
2022/05/14 05:33:25;;;;;;;4.55;1.30;;;14.80;99.90;;;;;;5080717;28;20051;-71
2022/05/14 05:35:54;;;;;;;3.50;1.40;;;14.90;99.90;;;;;;5068019;28;20039;-72
2022/05/14 05:38:20;;;;;;;9.07;1.58;;;15.00;99.90;;;;;;5080018;28;20039;-71
2022/05/14 05:40:45;;;;;;;2.53;1.52;;;15.00;99.90;;;;;;5082571;28;20396;-71
2022/05/14 05:43:12;;;;;;;6.43;2.75;;;15.20;99.90;;;;;;5065131;28;20394;-72
2022/05/14 05:45:40;;;;;;;3.60;2.13;;;15.30;99.90;;;;;;5079724;28;20032;-72
2022/05/14 05:48:06;;;;;;;5.03;2.20;;;15.40;99.90;;;;;;5062841;28;20119;-72
2022/05/14 05:50:32;;;;;;;7.20;2.35;;;15.60;99.90;;;;;;5076920;28;20150;-71
2022/05/14 05:53:00;;;;;;;5.13;2.42;;;15.70;99.90;;;;;;5066682;28;20764;-71
2022/05/14 05:58:19;;;;;;;8.80;3.15;;;15.90;99.90;;;;;;5076326;28;20115;-71
2022/05/14 06:00:48;;;;;;;7.20;2.50;;;16.00;99.90;;;;;;5081051;28;20070;-67
2022/05/14 06:03:14;;;;;;;5.75;2.70;;;15.90;99.90;;;;;;5069761;28;20401;-70
2022/05/14 06:05:39;;;;;;;7.43;2.78;;;16.00;99.90;;;;;;5084925;28;20023;-70
2022/05/14 06:08:11;;;;;;;3.90;2.55;;;16.10;99.90;;;;;;5064937;28;20024;-72
2022/05/14 06:10:41;;;;;;;7.45;2.95;;;16.10;99.90;;;;;;5083124;28;20206;-71
2022/05/14 06:13:09;;;;;;;7.95;3.10;;;16.20;99.90;;;;;;5073203;28;20032;-71
2022/05/14 06:15:35;;;;;;;6.20;3.40;;;16.10;99.90;;;;;;5065208;28;20036;-72
2022/05/14 06:18:03;;;;;;;8.55;3.10;;;16.10;99.90;;;;;;5083230;28;20032;-72
2022/05/14 06:20:29;;;;;;;6.10;3.05;;;16.10;99.90;;;;;;5080868;28;20043;-71
2022/05/14 06:22:54;;;;;;;7.07;2.88;;;16.00;99.90;;;;;;5064917;28;20035;-71
2022/05/14 06:25:20;;;;;;;4.80;2.85;;;15.80;99.90;;;;;;5073706;28;20027;-71
2022/05/14 06:27:46;;;;;;;4.60;2.35;;;15.80;99.90;;;;;;5076845;28;20078;-71
2022/05/14 06:30:18;;;;;;;7.72;2.90;;;15.60;99.90;;;;;;5082892;28;20467;-72
2022/05/14 06:32:43;;;;;;;5.47;2.58;;;15.50;99.90;;;;;;5080767;28;20098;-72
2022/05/14 06:35:12;;;;;;;5.82;2.47;;;15.50;99.90;;;;;;5078918;28;20111;-72
2022/05/14 06:37:38;;;;;;;7.10;2.83;;;15.30;99.90;;;;;;5063158;28;20031;-72
2022/05/14 06:40:04;;;;;;;8.30;2.88;;;15.20;99.90;;;;;;5073450;28;20362;-72
2022/05/14 06:42:29;;;;;;;6.30;2.83;;;15.20;99.90;;;;;;5077885;28;20036;-71
2022/05/14 06:44:56;;;;;;;7.22;3.03;;;15.30;99.90;;;;;;5071224;28;20044;-74
2022/05/14 06:47:21;;;;;;;6.97;2.78;;;15.50;99.90;;;;;;5076158;28;20396;-72
2022/05/14 06:49:47;;;;;;;7.13;3.63;;;15.70;99.90;;;;;;5081588;28;20032;-72
2022/05/14 06:52:14;;;;;;;7.95;3.28;;;15.80;99.90;;;;;;5075587;28;20043;-72
2022/05/14 06:54:42;;;;;;;6.78;2.80;;;16.10;99.90;;;;;;5063313;28;20035;-72
2022/05/14 06:57:09;;;;;;;5.57;2.65;;;16.20;99.90;;;;;;5075585;28;20101;-72
2022/05/14 06:59:35;;;;;;;4.93;2.80;;;16.30;99.90;;;;;;5062068;28;20032;-73
2022/05/14 07:02:01;;;;;;;8.32;2.95;;;16.20;99.90;;;;;;5063488;28;20024;-72
2022/05/14 07:07:12;;;;;;;6.40;3.05;;;16.10;99.90;;;;;;5052326;28;20044;-72
2022/05/14 07:09:38;;;;;;;3.88;2.40;;;16.10;99.90;;;;;;5081119;28;20033;-72
2022/05/14 07:12:09;;;;;;;3.35;2.20;;;16.10;99.90;;;;;;5082163;28;20103;-72
2022/05/14 07:14:36;;;;;;;4.10;2.40;;;16.00;99.90;;;;;;5082438;28;20088;-72
2022/05/14 07:17:03;;;;;;;4.22;2.63;;;16.10;99.90;;;;;;5081377;28;20016;-72
2022/05/14 07:19:28;;;;;;;5.00;2.53;;;16.20;99.90;;;;;;5074726;28;20039;-72
2022/05/14 07:21:55;;;;;;;5.20;2.47;;;16.20;99.90;;;;;;5079736;28;20040;-72
2022/05/14 07:24:30;;;;;;;6.72;2.92;;;16.20;99.90;;;;;;5080897;28;20055;-72
2022/05/14 07:27:02;;;;;;;3.63;2.13;;;16.20;99.90;;;;;;5063365;28;20135;-72
2022/05/14 07:29:29;;;;;;;5.10;2.28;;;16.20;99.90;;;;;;5078995;28;20743;-73
2022/05/14 07:31:54;;;;;;;6.10;2.17;;;16.20;99.90;;;;;;5084460;28;20801;-73
2022/05/14 07:34:22;;;;;;;4.63;2.40;;;16.10;99.90;;;;;;5065635;28;20445;-73
2022/05/14 07:36:56;;;;;;;4.80;2.33;;;16.20;99.90;;;;;;5079975;28;20247;-72
2022/05/14 07:39:23;;;;;;;;;;;16.30;99.90;;;;;;5081625;28;20024;-72
2022/05/14 07:41:53;;;;;;;6.25;2.08;;;16.40;99.90;;;;;;5076775;28;19988;-73
2022/05/14 07:44:21;;;;;;;6.20;2.17;;;16.50;99.90;;;;;;5068579;28;20028;-73
2022/05/14 07:46:49;;;;;;;3.80;2.40;;;16.60;99.90;;;;;;5080445;28;20133;-72
2022/05/14 07:49:16;;;;;;;5.68;2.20;;;16.60;99.90;;;;;;5061645;28;20370;-73
2022/05/14 07:51:42;;;;;;;5.60;2.13;;;16.80;99.90;;;;;;5079998;28;20027;-73
2022/05/14 07:54:08;;;;;;;5.40;2.20;;;16.90;99.90;;;;;;5081226;28;20024;-73
2022/05/14 07:56:34;;;;;;;6.80;2.67;;;16.90;99.90;;;;;;5084052;28;20036;-73
2022/05/14 07:59:00;;;;;;;6.28;1.90;;;17.00;99.90;;;;;;5081624;28;20380;-73
2022/05/14 08:01:29;;;;;;;6.07;2.00;;;17.20;99.90;;;;;;5085059;28;20028;-73
2022/05/14 08:03:54;;;;;;;5.40;2.35;;;17.30;99.90;;;;;;5065577;28;20422;-72
2022/05/14 08:06:22;;;;;;;4.43;2.30;;;17.40;99.90;;;;;;5075528;28;20033;-72
2022/05/14 08:08:48;;;;;;;5.32;2.72;;;17.40;99.90;;;;;;5079988;28;20020;-72
2022/05/14 08:11:14;;;;;;;7.63;2.88;;;17.50;99.90;;;;;;5075641;28;20036;-72
2022/05/14 08:13:41;;;;;;;5.53;2.65;;;17.50;99.90;;;;;;5058665;28;20397;-72
2022/05/14 08:16:07;;;;;;;4.72;2.92;;;17.70;99.90;;;;;;5067761;28;20040;-73
2022/05/14 08:18:33;;;;;;;4.03;2.38;;;17.70;99.90;;;;;;5076955;28;20161;-72
2022/05/14 08:24:29;;;;;;;8.98;2.42;;;17.90;99.90;;;;;;5082047;28;20104;-72
2022/05/14 08:26:28;;;;;;;6.28;2.28;;;18.00;99.20;;;;;;5083392;28;20046;-72
2022/05/14 08:28:54;;;;;;;5.40;2.22;;;18.00;98.40;;;;;;5082056;28;20016;-73
2022/05/14 08:31:19;;;;;;;6.93;2.22;;;18.10;98.40;;;;;;5067218;28;20075;-73
2022/05/14 08:33:45;;;;;;;5.60;2.00;;;18.10;98.30;;;;;;5070201;28;20476;-72
2022/05/14 08:36:11;;;;;;;6.85;1.92;;;18.10;97.60;;;;;;5085691;28;20024;-72
2022/05/14 08:38:37;;;;;;;3.40;1.75;;;18.10;96.80;;;;;;5067951;28;20031;-72
2022/05/14 08:41:03;;;;;;;8.75;1.92;;;18.20;96.90;;;;;;5065684;28;20024;-73
2022/05/14 08:43:35;;;;;;;8.25;2.10;;;18.30;96.90;;;;;;5084098;28;20028;-72
2022/05/14 08:46:01;;;;;;;6.68;1.92;;;18.40;96.90;;;;;;5067822;28;20027;-73
2022/05/14 08:48:31;;;;;;;8.65;2.20;;;18.40;96.40;;;;;;5081112;28;20025;-73
2022/05/14 08:51:03;;;;;;;6.50;1.60;;;18.60;96.30;;;;;;5066446;28;20024;-73
2022/05/14 08:53:30;;;;;;;3.00;1.50;;;18.70;95.30;;;;;;5061241;28;20036;-74
2022/05/14 08:56:10;;;;;;;4.90;1.75;;;18.80;94.90;;;;;;5068425;28;20035;-73
2022/05/14 08:59:01;;;;;;;5.70;1.77;;;18.70;94.10;;;;;;5087655;28;20035;-72
2022/05/14 09:01:31;;;;;;;3.80;1.67;;;18.80;94.10;;;;;;5085719;28;20024;-73
2022/05/14 09:03:56;;;;;;;5.07;1.98;;;18.70;93.40;;;;;;5068757;28;20078;-73
2022/05/14 09:06:22;;;;;;;3.72;1.30;;;18.90;93.60;;;;;;5070320;28;20089;-73
2022/05/14 09:08:49;;;;;;;3.33;1.15;;;19.00;92.50;;;;;;5084500;28;20385;-72
2022/05/14 09:11:39;;;;;;;6.70;2.10;;;19.10;92.00;;;;;;5090062;28;20035;-73
2022/05/14 09:14:20;;;;;;;3.90;1.30;;;18.90;91.60;;;;;;5064008;28;20035;-72
2022/05/14 09:16:47;;;;;;;3.55;1.00;;;19.00;91.00;;;;;;5080664;28;20031;-72
2022/05/14 09:19:16;;;;;;;4.80;1.20;;;19.10;90.80;;;;;;5078751;28;20072;-72
2022/05/14 09:21:54;;;;;;;3.28;1.10;;;19.10;89.70;;;;;;5077819;28;20659;-72
2022/05/14 09:24:29;;;;;;;4.78;1.17;;;19.20;89.90;;;;;;5087308;28;20039;-72
2022/05/14 09:27:06;;;;;;;4.28;1.20;;;19.40;88.80;;;;;;5061869;28;20030;-72
2022/05/14 09:29:45;;;;;;;6.43;1.20;;;19.50;87.90;;;;;;5084662;28;20431;-72
2022/05/14 09:32:22;;;;;;;4.28;1.20;;;19.50;87.30;;;;;;5081045;28;20095;-72
2022/05/14 09:34:49;;;;;;;4.47;1.30;;;19.60;87.30;;;;;;5057378;28;20024;-72
2022/05/14 09:37:36;;;;;;;5.40;1.30;;;19.60;86.90;;;;;;5081640;28;20503;-72
2022/05/14 09:40:12;;;;;;;4.53;1.77;;;19.60;87.20;;;;;;5075735;28;20016;-72
2022/05/14 09:42:46;;;;;;;10.77;1.60;;;19.70;87.90;;;;;;5077980;28;20038;-72
2022/05/14 09:45:21;;;;;;;4.57;1.48;;;19.70;87.70;;;;;;5088640;28;20016;-73
2022/05/14 09:47:50;;;;;;;2.95;1.33;;;19.80;88.20;;;;;;5064811;28;20060;-73
2022/05/14 09:50:32;;;;;;;4.47;1.58;;;19.90;88.30;;;;;;5026045;28;20410;-72
2022/05/14 09:53:04;;;;;;;4.53;1.98;;;19.90;87.10;;;;;;5062292;28;20169;-72
2022/05/14 09:55:52;;;;;;;3.60;1.80;;;20.00;87.60;;;;;;5066197;28;20035;-72
2022/05/14 09:58:50;;;;;;;5.53;1.88;;;20.00;87.70;;;;;;5085422;28;20025;-72
2022/05/14 10:01:31;;;;;;;3.03;1.70;;;20.00;87.90;;;;;;5038552;28;20028;-70
2022/05/14 10:04:19;;;;;;;6.38;1.80;;;20.10;87.60;;;;;;5091491;28;20059;-71
2022/05/14 10:07:07;;;;;;;6.15;1.80;;;20.10;88.00;;;;;;5082416;28;20090;-70
2022/05/14 10:09:59;;;;;;;3.35;1.60;;;20.20;87.60;;;;;;5073136;28;20048;-71
2022/05/14 10:12:48;;;;;;;5.40;1.98;;;20.30;87.90;;;;;;5072867;28;20381;-70
2022/05/14 10:15:59;;;;;;;5.43;2.08;;;20.30;86.30;;;;;;5070913;28;20032;-70
2022/05/14 10:18:36;;;;;;;6.38;1.70;;;20.30;87.30;;;;;;5073045;28;20560;-71
2022/05/14 10:21:25;;;;;;;3.47;1.70;;;20.40;86.80;;;;;;5058896;28;20127;-70
2022/05/14 10:27:27;;;;;;;4.28;1.45;;;20.40;86.80;;;;;;5056142;28;20067;-70
2022/05/14 10:30:02;;;;;;;6.72;1.75;;;20.50;86.50;;;;;;5092873;28;20020;-70
2022/05/14 10:32:34;;;;;;;6.57;2.42;;;20.50;85.90;;;;;;5092896;28;20047;-70
2022/05/14 10:35:22;;;;;;;7.28;1.45;;;20.40;85.40;;;;;;5074420;28;20058;-71
2022/05/14 10:37:55;;;;;;;5.70;1.90;;;20.20;86.70;;;;;;5092362;28;20024;-70
2022/05/14 10:40:38;;;;;;;3.17;1.73;;;20.20;87.00;;;;;;5074568;28;20441;-69
2022/05/14 10:43:25;;;;;;;4.93;2.20;;;20.30;86.50;;;;;;5084500;28;20032;-70
2022/05/14 10:45:54;;;;;;;4.13;2.03;;;20.50;84.60;;;;;;5092699;28;20022;-69
2022/05/14 10:48:41;;;;;;;6.28;1.95;;;20.60;82.30;;;;;;5092354;28;20035;-70
2022/05/14 10:51:22;;;;;;;3.65;1.63;;;20.70;80.40;;;;;;5092514;28;20071;-70
2022/05/14 10:53:48;;;;;;;4.43;1.45;;;20.70;74.40;;;;;;5092455;28;20058;-69
2022/05/14 10:56:22;;;;;;;5.93;1.92;;;20.70;71.30;;;;;;5092450;28;20031;-70
2022/05/14 10:59:04;;;;;;;6.95;1.73;;;20.70;76.30;;;;;;5073889;28;20478;-70
2022/05/14 11:01:46;;;;;;;6.13;2.10;;;20.70;78.10;;;;;;5092314;28;20404;-70
2022/05/14 11:04:27;;;;;;;4.05;2.10;;;20.70;77.50;;;;;;5092092;28;20020;-70
2022/05/14 11:07:01;;;;;;;3.55;1.85;;;20.60;77.70;;;;;;5092361;28;20020;-70
2022/05/14 11:10:37;;;;;;;4.20;1.52;;;20.50;78.30;;;;;;5092174;28;20020;-70
2022/05/14 11:13:10;;;;;;;5.65;1.73;;;20.50;78.10;;;;;;5007252;28;20041;-69
2022/05/14 11:15:35;;;;;;;4.65;1.52;;;20.60;77.00;;;;;;5029340;28;20038;-70
2022/05/14 11:18:14;;;;;;;3.13;1.70;;;20.70;77.40;;;;;;5057973;28;20032;-71
2022/05/14 11:21:03;;;;;;;4.07;1.73;;;20.70;75.10;;;;;;5088446;28;20039;-69
2022/05/14 11:23:29;;;;;;;6.05;2.72;;;20.70;75.00;;;;;;5087274;28;20024;-71
2022/05/14 11:26:11;;;;;;;2.53;1.60;;;20.70;73.20;;;;;;5082030;28;20065;-70
2022/05/14 11:28:44;;;;;;;4.13;1.50;;;20.70;73.10;;;;;;5090987;28;20099;-70
2022/05/14 11:31:16;;;;;;;2.25;1.40;;;20.80;73.20;;;;;;5076729;28;20021;-71
2022/05/14 11:33:45;;;;;;;4.65;2.00;;;20.80;73.90;;;;;;5088830;28;20103;-71
2022/05/14 11:36:11;;;;;;;4.90;2.97;;;20.70;72.90;;;;;;5073187;28;20024;-71
2022/05/14 11:38:42;;;;;;;2.45;1.25;;;20.80;72.50;;;;;;5091162;28;20104;-71
2022/05/14 11:41:35;;;;;;;4.43;1.33;;;20.90;71.80;;;;;;5091995;28;20020;-72
2022/05/14 11:44:04;;;;;;;5.18;1.20;;;21.00;71.00;;;;;;5071610;28;20024;-71
2022/05/14 11:46:50;;;;;;;2.45;1.15;;;21.00;72.30;;;;;;5040477;28;20556;-72
2022/05/14 11:49:24;;;;;;;3.30;1.35;;;21.10;72.40;;;;;;5025321;28;20479;-71
2022/05/14 11:52:18;;;;;;;4.47;1.48;;;21.30;70.70;;;;;;5091825;28;20485;-70
2022/05/14 11:55:10;;;;;;;2.65;1.55;;;21.40;72.60;;;;;;5073390;28;20028;-70
2022/05/14 11:57:43;;;;;;;4.07;1.70;;;21.40;72.40;;;;;;5090666;28;20093;-71
2022/05/14 12:00:15;;;;;;;5.57;1.88;;;21.40;72.40;;;;;;5066257;28;20085;-71
2022/05/14 12:03:03;;;;;;;4.53;0.93;;;21.30;72.30;;;;;;5091493;28;20111;-71
2022/05/14 12:05:40;;;;;;;4.20;1.63;;;21.30;69.80;;;;;;5095787;28;20121;-71
2022/05/14 12:08:30;;;;;;;2.67;1.38;;;21.40;69.30;;;;;;5085901;28;20099;-71
2022/05/14 12:11:30;;;;;;;1.75;1.40;;;21.50;68.20;;;;;;5092774;28;20016;-71
2022/05/14 12:14:35;;;;;;;3.35;1.30;;;21.50;67.30;;;;;;5094366;28;20379;-70
2022/05/14 12:17:02;;;;;;;;;;;21.50;67.20;;;;;;5078175;28;20519;-70
2022/05/14 12:19:29;;;;;;;5.03;1.50;;;21.40;67.30;;;;;;5075071;28;20365;-71
2022/05/14 12:22:01;;;;;;;6.45;1.50;;;21.40;66.60;;;;;;5076372;28;20023;-70
2022/05/14 12:24:28;;;;;;;1.73;1.00;;;21.30;65.20;;;;;;5090972;28;20082;-71
2022/05/14 12:26:57;;;;;;;1.70;0.95;;;21.40;58.50;;;;;;5068326;28;20028;-70
2022/05/14 12:29:33;;;;;;;2.75;1.20;;;21.40;56.30;;;;;;5081376;28;20093;-70
2022/05/14 12:34:56;;;;;;;3.97;1.17;;;21.50;55.70;;;;;;5095415;28;20077;-71
2022/05/14 12:37:43;;;;;;;4.47;1.90;;;21.60;55.40;;;;;;5095089;28;20027;-71
2022/05/14 12:40:18;;;;;;;3.75;0.93;;;21.60;58.70;;;;;;5086800;28;20047;-71
2022/05/14 12:42:44;;;;;;;1.75;0.75;;;21.80;58.60;;;;;;5092906;28;20024;-71
2022/05/14 12:45:11;;;;;;;1.42;0.90;;;21.80;56.30;;;;;;5094980;28;20496;-70
2022/05/14 12:47:42;;;;;;;3.35;0.88;;;21.80;55.20;;;;;;5095201;28;20027;-71
2022/05/14 12:50:30;;;;;;;4.28;1.05;;;21.70;55.60;;;;;;5087464;28;20131;-71
2022/05/14 12:53:05;;;;;;;2.67;0.88;;;21.70;54.60;;;;;;5076752;28;20028;-71
2022/05/14 12:55:44;;;;;;;2.13;1.17;;;21.70;56.00;;;;;;5079314;28;20107;-70
2022/05/14 12:58:14;;;;;;;2.38;0.75;;;21.80;54.80;;;;;;5081779;28;20020;-71
2022/05/14 13:00:52;;;;;;;1.27;0.85;;;21.80;51.90;;;;;;5094781;28;20035;-70
2022/05/14 13:03:42;;;;;;;2.63;0.98;;;21.90;50.70;;;;;;5094915;28;20036;-71
2022/05/14 13:06:16;;;;;;;3.17;0.88;;;22.00;48.30;;;;;;5085518;28;20008;-71
2022/05/14 13:08:46;;;;;;;1.83;0.60;;;22.00;44.10;;;;;;5094466;28;20108;-71
2022/05/14 13:11:18;;;;;;;4.30;0.90;;;22.00;45.20;;;;;;5067182;28;20048;-70
2022/05/14 13:13:57;;;;;;;1.70;0.88;;;22.00;45.90;;;;;;5094643;28;20036;-71
2022/05/14 13:16:26;;;;;;;2.75;1.10;;;22.10;46.10;;;;;;5093028;28;20101;-72
2022/05/14 13:18:59;;;;;;;2.03;0.65;;;22.00;45.00;;;;;;5091042;28;20021;-70
2022/05/14 13:21:28;;;;;;;1.55;0.80;;;21.90;46.50;;;;;;5088647;28;20473;-71
2022/05/14 13:24:03;;;;;;;2.50;1.15;;;21.80;47.80;;;;;;5090312;28;20151;-70
2022/05/14 13:26:43;;;;;;;1.55;0.80;;;21.80;48.10;;;;;;5064351;28;20021;-70
2022/05/14 13:29:35;;;;;;;3.35;1.80;;;21.90;49.30;;;;;;5073772;28;20016;-70
2022/05/14 13:32:22;;;;;;;2.45;1.08;;;21.90;50.70;;;;;;5087130;28;20488;-70
2022/05/14 13:37:54;;;;;;;4.25;1.02;;;22.10;50.10;;;;;;5094216;28;20093;-70